Time;durP1;ratioP1;P1;durP2;ratioP2;P2;SDS_P1;SDS_P2;PMS_P1;PMS_P2;Temp;Humidity;BMP_temperature;BMP_pressure;BME280_temperature;BME280_humidity;BME280_pressure;Samples;Min_cycle;Max_cycle;Signal;HPM_P1;HPM_P2
2021/03/28 00:02:28;;;;;;;6.22;1.48;;;;;;;;;;5036588;28;20049;-59
2021/03/28 00:04:59;;;;;;;2.85;1.38;;;;;;;;;;5036411;28;20113;-59
2021/03/28 00:07:35;;;;;;;3.20;1.20;;;;;;;;;;5036294;28;20041;-59
2021/03/28 00:10:02;;;;;;;5.07;1.30;;;;;;;;;;5036353;28;20037;-59
2021/03/28 00:12:30;;;;;;;3.67;1.35;;;;;;;;;;5036277;28;20029;-59
2021/03/28 00:15:00;;;;;;;4.90;1.02;;;;;;;;;;5035114;28;20025;-59
2021/03/28 00:17:28;;;;;;;7.15;1.35;;;;;;;;;;5036119;28;20109;-59
2021/03/28 00:19:57;;;;;;;10.50;1.23;;;;;;;;;;5036403;28;20034;-59
2021/03/28 00:22:26;;;;;;;1.98;0.90;;;;;;;;;;5035917;28;20022;-59
2021/03/28 00:24:58;;;;;;;5.78;0.82;;;;;;;;;;5034611;28;20444;-59
2021/03/28 00:27:27;;;;;;;4.35;1.30;;;;;;;;;;5034372;28;20040;-59
2021/03/28 00:29:57;;;;;;;1.10;0.85;;;;;;;;;;5036290;28;20029;-59
2021/03/28 00:32:25;;;;;;;6.00;0.90;;;;;;;;;;5036061;28;20045;-59
2021/03/28 00:34:52;;;;;;;2.78;0.95;;;;;;;;;;5035999;28;20439;-59
2021/03/28 00:37:20;;;;;;;1.85;0.90;;;;;;;;;;5035397;28;20029;-60
2021/03/28 00:39:49;;;;;;;5.00;1.15;;;;;;;;;;5036014;28;20041;-60
2021/03/28 00:42:32;;;;;;;9.90;1.15;;;;;;;;;;5035574;28;20363;-60
2021/03/28 00:45:17;;;;;;;4.90;0.95;;;;;;;;;;5034528;28;20065;-59
2021/03/28 00:47:46;;;;;;;4.43;1.05;;;;;;;;;;5035199;28;20449;-60
2021/03/28 00:50:21;;;;;;;10.85;1.52;;;;;;;;;;5034469;28;20066;-59
2021/03/28 00:52:53;;;;;;;4.22;1.25;;;;;;;;;;5035466;28;20463;-59
2021/03/28 00:55:21;;;;;;;5.95;0.98;;;;;;;;;;5035731;28;20025;-60
2021/03/28 00:57:58;;;;;;;1.27;0.90;;;;;;;;;;5035311;28;20032;-59
2021/03/28 01:00:43;;;;;;;4.95;1.17;;;;;;;;;;5035195;28;20060;-59
2021/03/28 01:03:30;;;;;;;1.83;1.10;;;;;;;;;;5034478;28;20025;-60
2021/03/28 01:05:59;;;;;;;3.00;1.00;;;;;;;;;;5035348;28;20031;-59
2021/03/28 01:08:32;;;;;;;3.85;1.35;;;;;;;;;;5035191;28;20029;-59
2021/03/28 01:11:07;;;;;;;2.53;0.90;;;;;;;;;;5035084;28;20087;-59
2021/03/28 01:13:53;;;;;;;1.60;1.02;;;;;;;;;;5035336;28;20060;-59
2021/03/28 01:16:37;;;;;;;3.42;1.10;;;;;;;;;;5035131;28;20037;-59
2021/03/28 01:19:03;;;;;;;2.50;1.00;;;;;;;;;;5034995;28;20440;-60
2021/03/28 01:21:48;;;;;;;4.88;1.35;;;;;;;;;;5035230;28;20047;-59
2021/03/28 01:24:40;;;;;;;5.43;1.17;;;;;;;;;;5035171;28;20144;-60
2021/03/28 01:27:23;;;;;;;4.35;1.48;;;;;;;;;;5033474;28;20062;-59
2021/03/28 01:29:55;;;;;;;5.95;1.27;;;;;;;;;;5033593;28;20467;-59
2021/03/28 01:32:21;;;;;;;2.20;1.20;;;;;;;;;;5035051;28;20040;-60
2021/03/28 01:34:50;;;;;;;1.90;1.27;;;;;;;;;;5035068;28;20030;-59
2021/03/28 01:37:28;;;;;;;1.33;0.93;;;;;;;;;;5033201;28;20039;-59
2021/03/28 01:40:06;;;;;;;4.05;1.20;;;;;;;;;;5045483;28;20044;-59
2021/03/28 01:42:40;;;;;;;4.18;1.33;;;;;;;;;;5047310;28;20025;-59
2021/03/28 01:45:11;;;;;;;6.03;1.15;;;;;;;;;;5043996;28;20037;-59
2021/03/28 01:47:46;;;;;;;2.47;1.30;;;;;;;;;;5041290;28;20483;-59
2021/03/28 01:50:21;;;;;;;5.18;1.35;;;;;;;;;;5043406;28;20083;-59
2021/03/28 01:53:10;;;;;;;2.65;1.20;;;;;;;;;;5043760;28;20112;-59
2021/03/28 01:55:43;;;;;;;6.37;1.10;;;;;;;;;;5043865;28;20167;-59
2021/03/28 01:58:17;;;;;;;3.50;1.60;;;;;;;;;;5043372;28;20047;-60
2021/03/28 02:00:58;;;;;;;4.05;1.40;;;;;;;;;;5043584;28;20025;-59
2021/03/28 02:03:27;;;;;;;6.35;1.25;;;;;;;;;;5043461;28;20027;-59
2021/03/28 02:06:02;;;;;;;5.67;2.10;;;;;;;;;;5043252;28;20028;-59
2021/03/28 02:08:46;;;;;;;2.47;1.10;;;;;;;;;;5043489;28;20455;-59
2021/03/28 02:11:25;;;;;;;3.97;1.50;;;;;;;;;;5042906;28;20032;-59
2021/03/28 02:14:00;;;;;;;6.25;1.23;;;;;;;;;;5046076;28;20115;-59
2021/03/28 02:16:30;;;;;;;6.70;1.67;;;;;;;;;;5045458;28;20025;-59
2021/03/28 02:19:05;;;;;;;3.22;1.30;;;;;;;;;;5042585;28;20021;-59
2021/03/28 02:22:00;;;;;;;4.03;1.40;;;;;;;;;;5047357;28;20107;-59
2021/03/28 02:24:26;;;;;;;2.10;1.23;;;;;;;;;;5044261;28;20040;-59
2021/03/28 02:27:04;;;;;;;3.15;1.45;;;;;;;;;;5039905;28;20120;-59
2021/03/28 02:29:32;;;;;;;5.85;1.60;;;;;;;;;;5039919;28;20037;-59
2021/03/28 02:32:17;;;;;;;4.13;1.65;;;;;;;;;;5040540;28;20112;-59
2021/03/28 02:34:43;;;;;;;7.22;1.23;;;;;;;;;;5041586;28;20029;-59
2021/03/28 02:37:15;;;;;;;2.22;1.35;;;;;;;;;;5043370;28;20032;-59
2021/03/28 02:39:44;;;;;;;3.60;1.23;;;;;;;;;;5051107;28;20347;-59
2021/03/28 02:42:16;;;;;;;3.33;1.27;;;;;;;;;;5034349;28;20036;-59
2021/03/28 02:45:03;;;;;;;2.75;1.33;;;;;;;;;;5051266;28;20068;-59
2021/03/28 02:47:41;;;;;;;4.93;1.10;;;;;;;;;;5033725;28;20041;-60
2021/03/28 02:50:19;;;;;;;3.10;1.27;;;;;;;;;;5043900;28;20071;-60
2021/03/28 02:53:04;;;;;;;5.53;1.20;;;;;;;;;;5034037;28;20060;-60
2021/03/28 02:55:33;;;;;;;4.30;1.50;;;;;;;;;;5050892;28;20057;-61
2021/03/28 02:58:15;;;;;;;2.70;1.77;;;;;;;;;;5050524;28;20114;-61
2021/03/28 03:00:46;;;;;;;4.95;1.40;;;;;;;;;;5051923;28;20528;-60
2021/03/28 03:03:15;;;;;;;2.88;1.75;;;;;;;;;;5053167;28;20029;-61
2021/03/28 03:05:47;;;;;;;3.40;1.23;;;;;;;;;;5051814;28;20484;-60
2021/03/28 03:08:21;;;;;;;2.67;1.20;;;;;;;;;;5051661;28;20047;-60
2021/03/28 03:10:48;;;;;;;3.80;1.50;;;;;;;;;;5053134;28;20021;-61
2021/03/28 03:13:33;;;;;;;2.50;1.30;;;;;;;;;;5053192;28;20075;-61
2021/03/28 03:15:59;;;;;;;3.53;1.30;;;;;;;;;;5053092;28;20051;-61
2021/03/28 03:18:40;;;;;;;2.35;1.27;;;;;;;;;;5051575;28;20450;-60
2021/03/28 03:21:18;;;;;;;5.28;1.25;;;;;;;;;;5053044;28;20017;-61
2021/03/28 03:24:03;;;;;;;5.25;1.80;;;;;;;;;;5036078;28;20108;-60
2021/03/28 03:26:44;;;;;;;2.83;1.58;;;;;;;;;;5034429;28;20038;-61
2021/03/28 03:29:28;;;;;;;2.08;1.42;;;;;;;;;;5036909;28;20033;-61
2021/03/28 03:32:13;;;;;;;2.75;1.75;;;;;;;;;;5035847;28;20522;-61
2021/03/28 03:34:52;;;;;;;4.90;1.48;;;;;;;;;;5035799;28;20030;-60
2021/03/28 03:37:30;;;;;;;4.93;1.15;;;;;;;;;;5037066;28;20045;-60
2021/03/28 03:39:56;;;;;;;3.95;1.67;;;;;;;;;;5035867;28;20017;-61
2021/03/28 03:42:28;;;;;;;1.55;1.30;;;;;;;;;;5036962;28;20106;-61
2021/03/28 03:45:12;;;;;;;7.53;1.20;;;;;;;;;;5036669;28;20039;-61
2021/03/28 03:47:43;;;;;;;3.10;1.05;;;;;;;;;;5036560;28;20046;-61
2021/03/28 03:50:12;;;;;;;4.88;1.48;;;;;;;;;;5036912;28;20047;-61
2021/03/28 03:52:44;;;;;;;3.75;1.42;;;;;;;;;;5036854;28;20022;-61
2021/03/28 03:55:18;;;;;;;5.80;1.52;;;;;;;;;;5036530;28;20022;-61
2021/03/28 03:57:49;;;;;;;2.88;1.13;;;;;;;;;;5036388;28;20505;-61
2021/03/28 04:00:29;;;;;;;6.93;1.25;;;;;;;;;;5036703;28;20029;-61
2021/03/28 04:03:16;;;;;;;3.08;1.20;;;;;;;;;;5036633;28;20025;-61
2021/03/28 04:05:59;;;;;;;5.13;1.60;;;;;;;;;;5036418;28;20451;-61
2021/03/28 04:08:43;;;;;;;3.75;1.38;;;;;;;;;;5036403;28;20033;-61
2021/03/28 04:11:28;;;;;;;6.63;1.30;;;;;;;;;;5036491;28;20029;-60
2021/03/28 04:14:09;;;;;;;2.90;1.45;;;;;;;;;;5036176;28;20041;-60
2021/03/28 04:16:53;;;;;;;4.18;1.70;;;;;;;;;;5035005;28;20371;-61
2021/03/28 04:19:19;;;;;;;4.70;1.10;;;;;;;;;;5036057;28;20390;-61
2021/03/28 04:21:45;;;;;;;3.97;1.25;;;;;;;;;;5036050;28;20036;-61
2021/03/28 04:24:18;;;;;;;11.70;1.65;;;;;;;;;;5036157;28;20032;-61
2021/03/28 04:27:03;;;;;;;2.85;1.33;;;;;;;;;;5035961;28;20447;-61
2021/03/28 04:29:29;;;;;;;3.53;1.58;;;;;;;;;;5034877;28;20060;-60
2021/03/28 04:31:55;;;;;;;3.38;1.40;;;;;;;;;;5035967;28;20033;-61
2021/03/28 04:34:24;;;;;;;5.82;1.52;;;;;;;;;;5036123;28;20036;-61
2021/03/28 04:37:02;;;;;;;3.88;1.10;;;;;;;;;;5035476;28;20067;-61
2021/03/28 04:39:28;;;;;;;4.85;1.23;;;;;;;;;;5036003;28;20061;-61
2021/03/28 04:42:13;;;;;;;5.70;1.40;;;;;;;;;;5034531;28;20466;-61
2021/03/28 04:44:39;;;;;;;4.53;1.52;;;;;;;;;;5035724;28;20030;-61
2021/03/28 04:47:05;;;;;;;5.05;1.52;;;;;;;;;;5034019;28;20497;-60
2021/03/28 04:49:31;;;;;;;2.85;1.25;;;;;;;;;;5034373;28;20351;-61
2021/03/28 04:51:57;;;;;;;4.90;1.52;;;;;;;;;;5035667;28;20355;-60
2021/03/28 04:54:34;;;;;;;6.93;1.95;;;;;;;;;;5035163;28;20391;-61
2021/03/28 04:57:19;;;;;;;7.18;1.40;;;;;;;;;;5033944;28;20117;-61
2021/03/28 04:59:57;;;;;;;2.97;1.20;;;;;;;;;;5034157;28;20053;-61
2021/03/28 05:02:42;;;;;;;3.92;1.20;;;;;;;;;;5034253;28;20111;-61
2021/03/28 05:05:38;;;;;;;5.30;1.45;;;;;;;;;;5035454;28;20022;-61
2021/03/28 05:08:19;;;;;;;5.93;1.38;;;;;;;;;;5039868;28;20107;-60
2021/03/28 05:10:47;;;;;;;4.22;1.23;;;;;;;;;;5036084;28;20407;-61
2021/03/28 05:13:26;;;;;;;3.05;1.33;;;;;;;;;;5036160;28;20033;-60
2021/03/28 05:15:52;;;;;;;2.97;1.45;;;;;;;;;;5052858;28;20057;-61
2021/03/28 05:18:41;;;;;;;4.90;1.73;;;;;;;;;;5035829;28;20446;-61
2021/03/28 05:21:25;;;;;;;5.75;1.10;;;;;;;;;;5052558;28;20048;-60
2021/03/28 05:24:10;;;;;;;1.15;1.00;;;;;;;;;;5052641;28;20036;-61
2021/03/28 05:26:54;;;;;;;4.13;1.33;;;;;;;;;;5035817;28;20057;-61
2021/03/28 05:29:23;;;;;;;2.90;1.27;;;;;;;;;;5052348;28;20096;-61
2021/03/28 05:32:07;;;;;;;3.60;1.40;;;;;;;;;;5052500;28;20461;-61
2021/03/28 05:35:03;;;;;;;5.90;1.30;;;;;;;;;;5052501;28;20033;-61
2021/03/28 05:37:38;;;;;;;3.67;1.52;;;;;;;;;;5045654;28;20045;-61
2021/03/28 05:40:22;;;;;;;2.92;1.25;;;;;;;;;;5041591;28;20437;-61
2021/03/28 05:42:48;;;;;;;10.15;1.60;;;;;;;;;;5043346;28;20079;-61
2021/03/28 05:45:21;;;;;;;2.33;1.27;;;;;;;;;;5042840;28;20025;-61
2021/03/28 05:48:10;;;;;;;2.40;1.25;;;;;;;;;;5044347;28;20488;-60
2021/03/28 05:50:40;;;;;;;4.30;1.13;;;;;;;;;;5044519;28;20025;-61
2021/03/28 05:53:25;;;;;;;4.25;1.45;;;;;;;;;;5043346;28;20032;-61
2021/03/28 05:55:54;;;;;;;5.10;1.20;;;;;;;;;;5045258;28;20119;-61
2021/03/28 05:58:20;;;;;;;1.73;1.20;;;;;;;;;;5043492;28;20470;-61
2021/03/28 06:00:46;;;;;;;2.58;1.27;;;;;;;;;;5043182;28;20096;-61
2021/03/28 06:03:12;;;;;;;4.72;1.27;;;;;;;;;;5043629;28;20462;-60
2021/03/28 06:05:57;;;;;;;6.53;1.40;;;;;;;;;;5042145;28;20032;-61
2021/03/28 06:08:41;;;;;;;2.65;1.38;;;;;;;;;;5043193;28;20414;-61
2021/03/28 06:11:26;;;;;;;1.85;1.00;;;;;;;;;;5044163;28;20032;-60
2021/03/28 06:14:10;;;;;;;1.75;1.35;;;;;;;;;;5042881;28;20036;-61
2021/03/28 06:16:57;;;;;;;5.55;1.15;;;;;;;;;;5042526;28;20021;-61
2021/03/28 06:19:51;;;;;;;3.08;1.17;;;;;;;;;;5039954;28;20041;-60
2021/03/28 06:22:20;;;;;;;1.95;1.23;;;;;;;;;;5033769;28;20538;-61
2021/03/28 06:25:05;;;;;;;3.80;1.05;;;;;;;;;;5043671;28;20107;-61
2021/03/28 06:27:33;;;;;;;2.75;1.40;;;;;;;;;;5053400;28;20037;-61
2021/03/28 06:29:59;;;;;;;5.47;1.58;;;;;;;;;;5054068;28;20036;-60
2021/03/28 06:32:31;;;;;;;9.23;1.45;;;;;;;;;;5053741;28;20035;-61
2021/03/28 06:35:13;;;;;;;4.00;1.50;;;;;;;;;;5053809;28;20075;-61
2021/03/28 06:37:58;;;;;;;1.67;1.13;;;;;;;;;;5052972;28;20043;-61
2021/03/28 06:40:40;;;;;;;2.33;1.40;;;;;;;;;;5053667;28;20036;-61
2021/03/28 06:43:32;;;;;;;5.72;1.25;;;;;;;;;;5053548;28;20466;-61
2021/03/28 06:45:58;;;;;;;7.28;1.55;;;;;;;;;;5050785;28;20063;-61
2021/03/28 06:48:39;;;;;;;4.95;0.95;;;;;;;;;;5053118;28;20474;-61
2021/03/28 06:51:24;;;;;;;5.47;1.38;;;;;;;;;;5053500;28;20104;-61
2021/03/28 06:54:08;;;;;;;3.08;1.40;;;;;;;;;;5053474;28;20025;-53
2021/03/28 06:56:46;;;;;;;4.85;1.75;;;;;;;;;;5053168;28;20106;-57
2021/03/28 06:59:18;;;;;;;2.28;1.25;;;;;;;;;;5053149;28;20044;-57
2021/03/28 07:01:50;;;;;;;4.07;1.25;;;;;;;;;;5052450;28;20025;-57
2021/03/28 07:04:16;;;;;;;4.28;2.00;;;;;;;;;;5046778;28;20347;-57
2021/03/28 07:07:01;;;;;;;2.75;1.23;;;;;;;;;;5040547;28;20025;-57
2021/03/28 07:09:47;;;;;;;2.75;1.20;;;;;;;;;;5032527;28;20451;-57
2021/03/28 07:12:32;;;;;;;2.53;1.20;;;;;;;;;;5032643;28;20029;-57
2021/03/28 07:15:16;;;;;;;2.38;1.20;;;;;;;;;;5033298;28;20043;-57
2021/03/28 07:17:53;;;;;;;1.60;1.25;;;;;;;;;;5032706;28;20447;-57
2021/03/28 07:20:44;;;;;;;4.78;1.20;;;;;;;;;;5033229;28;20057;-55
2021/03/28 07:23:16;;;;;;;4.32;1.58;;;;;;;;;;5033113;28;20112;-55
2021/03/28 07:25:48;;;;;;;7.68;2.33;;;;;;;;;;5033409;28;20021;-55
2021/03/28 07:28:17;;;;;;;7.10;3.15;;;;;;;;;;5032930;28;20030;-55
2021/03/28 07:31:02;;;;;;;6.13;1.83;;;;;;;;;;5033149;28;20029;-55
2021/03/28 07:33:46;;;;;;;2.03;1.00;;;;;;;;;;5033045;28;20030;-55
2021/03/28 07:36:31;;;;;;;6.10;1.27;;;;;;;;;;5032705;28;20030;-55
2021/03/28 07:39:09;;;;;;;4.45;1.23;;;;;;;;;;5032565;28;20439;-55
2021/03/28 07:41:41;;;;;;;6.20;1.60;;;;;;;;;;5033170;28;20033;-55
2021/03/28 07:44:10;;;;;;;4.47;1.23;;;;;;;;;;5032801;28;20029;-55
2021/03/28 07:46:56;;;;;;;1.88;1.17;;;;;;;;;;5032614;28;20404;-55
2021/03/28 07:49:46;;;;;;;5.75;1.25;;;;;;;;;;5032120;28;20065;-55
2021/03/28 07:52:19;;;;;;;2.95;0.63;;;;;;;;;;5032853;28;20477;-55
2021/03/28 07:54:51;;;;;;;5.75;1.42;;;;;;;;;;5032870;28;20056;-55
2021/03/28 07:57:30;;;;;;;7.82;1.60;;;;;;;;;;5032374;28;20371;-55
2021/03/28 08:00:28;;;;;;;4.47;1.85;;;;;;;;;;5032932;28;20025;-55
2021/03/28 08:03:13;;;;;;;1.77;1.00;;;;;;;;;;5033164;28;20079;-55
2021/03/28 08:05:58;;;;;;;7.53;1.38;;;;;;;;;;5046431;28;20127;-55
2021/03/28 08:08:36;;;;;;;1.42;0.70;;;;;;;;;;5040115;28;20515;-55
2021/03/28 08:11:02;;;;;;;0.52;0.50;;;;;;;;;;5050773;28;20037;-54
2021/03/28 08:13:34;;;;;;;4.53;0.98;;;;;;;;;;5051402;28;20030;-55
2021/03/28 08:16:06;;;;;;;1.00;0.90;;;;;;;;;;5037556;28;20037;-55
2021/03/28 08:18:51;;;;;;;3.90;1.20;;;;;;;;;;5055890;28;20054;-55
2021/03/28 08:21:19;;;;;;;1.63;0.88;;;;;;;;;;5056026;28;20029;-55
2021/03/28 08:24:04;;;;;;;1.10;0.73;;;;;;;;;;5054650;28;20071;-55
2021/03/28 08:26:40;;;;;;;1.10;0.70;;;;;;;;;;5056080;28;20025;-55
2021/03/28 08:29:27;;;;;;;0.73;0.38;;;;;;;;;;5055646;28;20053;-55
2021/03/28 08:32:09;;;;;;;1.60;0.85;;;;;;;;;;5055792;28;20021;-55
2021/03/28 08:34:54;;;;;;;1.30;0.88;;;;;;;;;;5054275;28;20028;-55
2021/03/28 08:37:25;;;;;;;1.20;0.70;;;;;;;;;;5047788;28;20398;-55
2021/03/28 08:39:55;;;;;;;1.70;0.93;;;;;;;;;;5051997;28;20033;-55
2021/03/28 08:42:39;;;;;;;6.00;1.45;;;;;;;;;;5055929;28;20044;-55
2021/03/28 08:45:20;;;;;;;0.63;0.52;;;;;;;;;;5049438;28;20037;-55
2021/03/28 08:47:58;;;;;;;7.30;1.67;;;;;;;;;;5052182;28;20044;-55
2021/03/28 08:50:50;;;;;;;2.30;1.30;;;;;;;;;;5055622;28;20063;-55
2021/03/28 08:53:43;;;;;;;1.48;1.23;;;;;;;;;;5054121;28;20052;-55
2021/03/28 08:56:22;;;;;;;5.78;1.48;;;;;;;;;;5051961;28;20037;-55
2021/03/28 08:58:48;;;;;;;3.92;1.67;;;;;;;;;;5051488;28;20029;-55
2021/03/28 09:01:16;;;;;;;2.20;1.52;;;;;;;;;;5055354;28;20020;-54
2021/03/28 09:03:42;;;;;;;6.32;1.33;;;;;;;;;;5055162;28;20106;-55
2021/03/28 09:06:11;;;;;;;7.47;1.50;;;;;;;;;;5054580;28;20434;-55
2021/03/28 09:08:45;;;;;;;2.22;1.50;;;;;;;;;;5040834;28;20071;-55
2021/03/28 09:11:26;;;;;;;4.15;1.13;;;;;;;;;;5054957;28;20478;-55
2021/03/28 09:13:52;;;;;;;5.70;1.13;;;;;;;;;;5050652;28;20032;-55
2021/03/28 09:16:21;;;;;;;3.17;0.88;;;;;;;;;;5054912;28;20036;-55
2021/03/28 09:18:53;;;;;;;3.55;0.57;;;;;;;;;;5051337;28;20086;-55
2021/03/28 09:21:19;;;;;;;3.05;1.02;;;;;;;;;;5049151;28;20155;-55
2021/03/28 09:24:04;;;;;;;2.03;0.52;;;;;;;;;;5040572;28;20053;-55
2021/03/28 09:26:37;;;;;;;2.47;1.33;;;;;;;;;;5042260;28;20037;-55
2021/03/28 09:29:33;;;;;;;1.13;0.63;;;;;;;;;;5050120;28;20461;-55
2021/03/28 09:32:09;;;;;;;1.48;1.38;;;;;;;;;;5053160;28;20350;-54
2021/03/28 09:34:59;;;;;;;7.57;1.38;;;;;;;;;;5054554;28;20021;-55
2021/03/28 09:37:44;;;;;;;2.67;1.23;;;;;;;;;;5046380;28;20021;-55
2021/03/28 09:40:22;;;;;;;4.80;1.02;;;;;;;;;;5043797;28;20032;-55
2021/03/28 09:42:51;;;;;;;0.30;0.30;;;;;;;;;;5050971;28;20025;-55
2021/03/28 09:45:29;;;;;;;7.50;1.98;;;;;;;;;;5054315;28;20025;-55
2021/03/28 09:48:21;;;;;;;0.40;0.40;;;;;;;;;;5042351;28;20041;-55
2021/03/28 09:51:05;;;;;;;0.70;0.45;;;;;;;;;;5039770;28;20036;-55
2021/03/28 09:53:37;;;;;;;5.00;0.93;;;;;;;;;;5054438;28;20358;-55
2021/03/28 09:56:09;;;;;;;2.10;0.75;;;;;;;;;;5054467;28;20039;-55
2021/03/28 09:58:38;;;;;;;1.75;0.68;;;;;;;;;;5042378;28;20021;-55
2021/03/28 10:01:10;;;;;;;4.50;1.95;;;;;;;;;;5041578;28;20454;-55
2021/03/28 10:03:36;;;;;;;2.25;1.08;;;;;;;;;;5054157;28;20457;-55
2021/03/28 10:06:12;;;;;;;0.77;0.77;;;;;;;;;;5054277;28;20461;-55
2021/03/28 10:08:42;;;;;;;2.47;1.52;;;;;;;;;;5047166;28;20041;-55
2021/03/28 10:11:15;;;;;;;2.25;0.70;;;;;;;;;;5040296;28;20339;-55
2021/03/28 10:13:50;;;;;;;0.43;0.40;;;;;;;;;;5054010;28;20025;-55
2021/03/28 10:16:22;;;;;;;1.45;0.88;;;;;;;;;;5054127;28;20427;-55
2021/03/28 10:19:00;;;;;;;0.30;0.30;;;;;;;;;;5050948;28;20099;-55
2021/03/28 10:21:32;;;;;;;5.50;1.27;;;;;;;;;;5033760;28;20021;-55
2021/03/28 10:24:08;;;;;;;3.63;1.33;;;;;;;;;;5034317;28;20030;-55
2021/03/28 10:26:52;;;;;;;1.08;0.57;;;;;;;;;;5033912;28;20026;-55
2021/03/28 10:29:28;;;;;;;0.43;0.43;;;;;;;;;;5034763;28;20025;-58
2021/03/28 10:31:58;;;;;;;0.25;0.25;;;;;;;;;;5052216;28;20053;-54
2021/03/28 10:34:32;;;;;;;3.45;1.40;;;;;;;;;;5048872;28;20595;-54
2021/03/28 10:37:05;;;;;;;2.47;1.20;;;;;;;;;;5046527;28;20033;-54
2021/03/28 10:39:40;;;;;;;3.03;0.52;;;;;;;;;;5038525;28;20387;-55
2021/03/28 10:42:41;;;;;;;1.08;0.63;;;;;;;;;;5053162;28;20086;-54
2021/03/28 10:45:23;;;;;;;14.93;1.60;;;;;;;;;;5050921;28;20075;-54
2021/03/28 10:47:52;;;;;;;0.55;0.55;;;;;;;;;;5036509;28;20052;-55
2021/03/28 10:50:36;;;;;;;5.03;1.52;;;;;;;;;;5043766;28;20032;-54
2021/03/28 10:53:08;;;;;;;1.73;1.38;;;;;;;;;;5053474;28;20028;-55
2021/03/28 10:55:51;;;;;;;3.10;1.30;;;;;;;;;;5053257;28;20108;-54
2021/03/28 10:58:22;;;;;;;1.70;1.02;;;;;;;;;;5052983;28;20048;-54
2021/03/28 11:01:07;;;;;;;11.98;2.13;;;;;;;;;;5049221;28;20104;-54
2021/03/28 11:03:33;;;;;;;3.13;1.20;;;;;;;;;;5053121;28;20100;-55
2021/03/28 11:06:11;;;;;;;3.35;0.95;;;;;;;;;;5053187;28;20067;-54
2021/03/28 11:08:59;;;;;;;2.08;1.75;;;;;;;;;;5051946;28;20032;-54
2021/03/28 11:11:47;;;;;;;3.85;0.65;;;;;;;;;;5037871;28;20032;-55
2021/03/28 11:14:36;;;;;;;0.90;0.80;;;;;;;;;;5050344;28;20442;-54
2021/03/28 11:17:07;;;;;;;4.68;1.38;;;;;;;;;;5052244;28;20044;-54
2021/03/28 11:19:33;;;;;;;1.65;0.85;;;;;;;;;;5052832;28;20279;-54
2021/03/28 11:22:11;;;;;;;0.90;0.90;;;;;;;;;;5040875;28;20029;-54
2021/03/28 11:24:52;;;;;;;0.30;0.30;;;;;;;;;;5043218;28;20110;-54
2021/03/28 11:27:37;;;;;;;6.32;1.80;;;;;;;;;;5047964;28;20052;-54
2021/03/28 11:30:07;;;;;;;9.63;1.38;;;;;;;;;;5039612;28;20129;-54
2021/03/28 11:32:49;;;;;;;1.67;1.00;;;;;;;;;;5043559;28;20411;-54
2021/03/28 11:35:18;;;;;;;1.77;1.25;;;;;;;;;;5045825;28;20112;-55
2021/03/28 11:37:52;;;;;;;1.52;0.77;;;;;;;;;;5044478;28;20028;-55
2021/03/28 11:40:18;;;;;;;4.40;0.55;;;;;;;;;;5046990;28;20132;-55
2021/03/28 11:42:53;;;;;;;4.22;0.50;;;;;;;;;;5044410;28;20120;-55
2021/03/28 11:45:31;;;;;;;0.20;0.20;;;;;;;;;;5044437;28;20035;-55
2021/03/28 11:47:57;;;;;;;3.95;0.77;;;;;;;;;;5045224;28;20032;-55
2021/03/28 11:50:56;;;;;;;2.60;0.68;;;;;;;;;;5047466;28;20032;-55
2021/03/28 11:53:25;;;;;;;1.10;0.65;;;;;;;;;;5048358;28;20037;-55
2021/03/28 11:55:52;;;;;;;3.42;0.80;;;;;;;;;;5047568;28;20061;-55
2021/03/28 11:58:18;;;;;;;4.80;1.48;;;;;;;;;;5046159;28;20501;-57
2021/03/28 12:00:45;;;;;;;0.75;0.60;;;;;;;;;;5051726;28;20033;-56
2021/03/28 12:03:23;;;;;;;1.27;0.82;;;;;;;;;;5050926;28;20092;-56
2021/03/28 12:05:53;;;;;;;1.50;1.10;;;;;;;;;;5050647;28;20024;-56
2021/03/28 12:08:20;;;;;;;2.58;1.50;;;;;;;;;;5050647;28;20059;-56
2021/03/28 12:10:47;;;;;;;0.60;0.60;;;;;;;;;;5051291;28;20068;-56
2021/03/28 12:13:13;;;;;;;3.63;1.15;;;;;;;;;;5052209;28;20462;-55
2021/03/28 12:15:48;;;;;;;2.90;0.80;;;;;;;;;;5051551;28;20116;-55
2021/03/28 12:18:23;;;;;;;0.85;0.85;;;;;;;;;;5052937;28;20064;-55
2021/03/28 12:21:07;;;;;;;2.47;1.65;;;;;;;;;;5048071;28;20259;-55
2021/03/28 12:23:56;;;;;;;1.95;1.48;;;;;;;;;;5050136;28;20504;-55
2021/03/28 12:26:28;;;;;;;2.47;0.95;;;;;;;;;;5049698;28;20187;-56
2021/03/28 12:29:03;;;;;;;2.00;1.38;;;;;;;;;;5054065;28;20045;-55
2021/03/28 12:31:29;;;;;;;3.28;1.20;;;;;;;;;;5055731;28;20044;-55
2021/03/28 12:34:14;;;;;;;4.82;1.95;;;;;;;;;;5043900;28;20397;-55
2021/03/28 12:36:52;;;;;;;2.28;1.17;;;;;;;;;;5050661;28;20110;-58
2021/03/28 12:39:21;;;;;;;1.75;1.42;;;;;;;;;;5046054;28;20021;-56
2021/03/28 12:42:03;;;;;;;9.60;1.37;;;;;;;;;;5047471;28;20017;-54
2021/03/28 12:44:29;;;;;;;1.17;0.90;;;;;;;;;;5050346;28;20441;-56
2021/03/28 12:46:59;;;;;;;11.63;1.83;;;;;;;;;;5053270;28;20044;-55
2021/03/28 12:49:34;;;;;;;6.82;1.20;;;;;;;;;;5054144;28;20174;-55
2021/03/28 12:52:02;;;;;;;12.27;2.33;;;;;;;;;;5047216;28;20116;-55
2021/03/28 12:54:33;;;;;;;7.30;1.20;;;;;;;;;;5045003;28;20033;-54
2021/03/28 12:57:02;;;;;;;36.67;2.55;;;;;;;;;;5049636;28;20461;-63
2021/03/28 12:59:30;;;;;;;10.75;2.90;;;;;;;;;;5049484;28;20055;-63
2021/03/28 13:02:10;;;;;;;19.40;4.32;;;;;;;;;;5054608;28;20012;-62
2021/03/28 13:04:37;;;;;;;7.90;4.15;;;;;;;;;;5053716;28;20351;-77
2021/03/28 13:07:04;;;;;;;4.10;2.25;;;;;;;;;;5047439;28;20037;-76
2021/03/28 13:09:37;;;;;;;17.08;4.03;;;;;;;;;;5053427;28;20258;-63
2021/03/28 13:12:08;;;;;;;19.67;4.15;;;;;;;;;;5051550;28;20443;-71
2021/03/28 13:14:34;;;;;;;8.77;1.45;;;;;;;;;;5050587;28;20053;-68
2021/03/28 13:17:18;;;;;;;15.30;1.92;;;;;;;;;;5050817;28;20514;-68
2021/03/28 13:19:46;;;;;;;8.15;3.55;;;;;;;;;;5053638;28;20021;-57
2021/03/28 13:22:21;;;;;;;7.18;3.63;;;;;;;;;;5040916;28;20443;-57
2021/03/28 13:24:47;;;;;;;9.35;2.35;;;;;;;;;;5043257;28;20025;-58
2021/03/28 13:27:15;;;;;;;32.28;3.60;;;;;;;;;;5046045;28;20049;-58
2021/03/28 13:29:50;;;;;;;491.33;112.32;;;;;;;;;;5053078;28;20025;-58
2021/03/28 13:32:25;;;;;;;267.55;61.65;;;;;;;;;;5045670;28;20036;-58
2021/03/28 13:34:53;;;;;;;141.55;21.48;;;;;;;;;;5042582;28;20347;-58
2021/03/28 13:37:29;;;;;;;59.15;12.50;;;;;;;;;;5043764;28;20159;-58
2021/03/28 13:40:05;;;;;;;26.10;9.13;;;;;;;;;;5045332;28;20021;-55
2021/03/28 13:42:41;;;;;;;16.13;7.03;;;;;;;;;;5049818;28;20032;-58
2021/03/28 13:45:27;;;;;;;4.05;2.05;;;;;;;;;;5045895;28;20411;-55
2021/03/28 13:47:55;;;;;;;3.35;1.70;;;;;;;;;;5045741;28;20065;-55
2021/03/28 13:50:40;;;;;;;28.88;3.83;;;;;;;;;;5053856;28;20351;-57
2021/03/28 13:53:18;;;;;;;9.43;1.63;;;;;;;;;;5046935;28;20454;-57
2021/03/28 13:55:52;;;;;;;0.98;0.88;;;;;;;;;;5051007;28;20078;-56
2021/03/28 13:58:18;;;;;;;35.55;5.03;;;;;;;;;;5045924;28;20090;-56
2021/03/28 14:00:44;;;;;;;4.38;1.05;;;;;;;;;;5042807;28;20024;-57
2021/03/28 14:03:15;;;;;;;1.10;0.70;;;;;;;;;;5043376;28;20040;-56
2021/03/28 14:05:42;;;;;;;6.50;2.60;;;;;;;;;;5048351;28;20572;-57
2021/03/28 14:08:12;;;;;;;5.78;1.48;;;;;;;;;;5043898;28;20122;-57
2021/03/28 14:10:38;;;;;;;1.30;0.98;;;;;;;;;;5051931;28;20104;-57
2021/03/28 14:13:13;;;;;;;10.13;1.95;;;;;;;;;;5053834;28;20132;-57
2021/03/28 14:15:41;;;;;;;9.18;2.85;;;;;;;;;;5054041;28;20021;-58
2021/03/28 14:18:11;;;;;;;8.35;2.72;;;;;;;;;;5040166;28;20025;-55
2021/03/28 14:20:39;;;;;;;20.02;1.85;;;;;;;;;;5050423;28;20502;-55
2021/03/28 14:23:11;;;;;;;3.80;1.70;;;;;;;;;;5043386;28;20135;-56
2021/03/28 14:25:37;;;;;;;3.42;2.97;;;;;;;;;;5050286;28;20028;-56
2021/03/28 14:28:22;;;;;;;7.38;1.55;;;;;;;;;;5044183;28;20333;-57
2021/03/28 14:30:58;;;;;;;5.93;1.83;;;;;;;;;;5046828;28;20025;-58
2021/03/28 14:33:27;;;;;;;1.50;1.40;;;;;;;;;;5053237;28;20040;-57
2021/03/28 14:36:07;;;;;;;6.75;2.63;;;;;;;;;;5053358;28;20347;-57
2021/03/28 14:38:34;;;;;;;12.05;2.40;;;;;;;;;;5041931;28;20033;-56
2021/03/28 14:41:12;;;;;;;2.13;1.92;;;;;;;;;;5041795;28;20473;-57
2021/03/28 14:44:00;;;;;;;10.70;1.25;;;;;;;;;;5051737;28;20041;-57
2021/03/28 14:46:36;;;;;;;0.52;0.52;;;;;;;;;;5053125;28;20027;-57
2021/03/28 14:49:18;;;;;;;4.70;1.33;;;;;;;;;;5043426;28;20063;-56
2021/03/28 14:51:44;;;;;;;4.03;1.38;;;;;;;;;;5040208;28;20044;-56
2021/03/28 14:54:29;;;;;;;3.42;2.65;;;;;;;;;;5043431;28;20033;-57
2021/03/28 14:56:55;;;;;;;2.40;1.50;;;;;;;;;;5049564;28;20033;-57
2021/03/28 14:59:26;;;;;;;1.83;1.45;;;;;;;;;;5053032;28;20021;-57
2021/03/28 15:02:10;;;;;;;6.63;3.00;;;;;;;;;;5049525;28;20029;-57
2021/03/28 15:04:42;;;;;;;1.10;0.57;;;;;;;;;;5043483;28;20055;-57
2021/03/28 15:07:27;;;;;;;3.13;1.00;;;;;;;;;;5049484;28;20037;-57
2021/03/28 15:10:22;;;;;;;0.28;0.28;;;;;;;;;;5052027;28;20450;-57
2021/03/28 15:13:03;;;;;;;3.83;1.13;;;;;;;;;;5052462;28;20048;-57
2021/03/28 15:15:51;;;;;;;1.85;1.38;;;;;;;;;;5051966;28;20028;-57
2021/03/28 15:18:20;;;;;;;0.28;0.28;;;;;;;;;;5050462;28;20115;-57
2021/03/28 15:20:49;;;;;;;6.10;1.33;;;;;;;;;;5060507;28;20028;-56
2021/03/28 15:23:23;;;;;;;3.60;1.00;;;;;;;;;;5042244;28;20194;-56
2021/03/28 15:26:07;;;;;;;2.72;0.90;;;;;;;;;;5068637;28;20138;-57
2021/03/28 15:28:34;;;;;;;0.30;0.30;;;;;;;;;;5069929;28;20382;-56
2021/03/28 15:31:10;;;;;;;0.35;0.35;;;;;;;;;;5048912;28;20045;-56
2021/03/28 15:33:58;;;;;;;9.60;2.03;;;;;;;;;;5048123;28;20048;-57